Time;durP1;ratioP1;P1;durP2;ratioP2;P2;SDS_P1;SDS_P2;PMS_P1;PMS_P2;Temp;Humidity;BMP_temperature;BMP_pressure;BME280_temperature;BME280_humidity;BME280_pressure;Samples;Min_cycle;Max_cycle;Signal;HPM_P1;HPM_P2
2022/04/14 00:02:09;;;;;;;6.40;5.80;;;13.90;99.90;;;;;;5051584;28;20220;-38
2022/04/14 00:04:36;;;;;;;6.57;5.67;;;14.00;99.90;;;;;;5050679;28;20185;-38
2022/04/14 00:07:02;;;;;;;6.67;5.80;;;14.00;99.90;;;;;;5057632;28;20279;-41
2022/04/14 00:09:29;;;;;;;6.00;5.37;;;14.00;99.90;;;;;;5067651;28;20497;-39
2022/04/14 00:11:55;;;;;;;5.50;5.00;;;14.10;99.90;;;;;;5060902;28;20424;-40
2022/04/14 00:14:21;;;;;;;6.60;5.93;;;14.10;99.90;;;;;;5051788;28;20452;-38
2022/04/14 00:16:47;;;;;;;7.23;6.33;;;14.10;99.90;;;;;;5059887;28;21168;-41
2022/04/14 00:19:13;;;;;;;7.90;6.17;;;14.10;99.90;;;;;;5051302;28;20432;-42
2022/04/14 00:21:38;;;;;;;6.20;5.60;;;13.90;99.90;;;;;;5050194;28;20241;-40
2022/04/14 00:24:05;;;;;;;7.00;5.93;;;13.80;99.90;;;;;;5077368;28;20276;-38
2022/04/14 00:26:31;;;;;;;7.00;6.30;;;13.90;99.90;;;;;;5063615;28;20668;-38
2022/04/14 00:28:56;;;;;;;7.33;6.13;;;14.00;99.90;;;;;;5049679;28;20928;-39
2022/04/14 00:31:22;;;;;;;7.00;6.30;;;14.00;99.90;;;;;;5055152;28;20479;-39
2022/04/14 00:33:48;;;;;;;7.33;5.93;;;14.00;99.90;;;;;;5051162;28;20540;-38
2022/04/14 00:36:14;;;;;;;8.97;7.00;;;14.00;99.90;;;;;;5050806;28;20197;-38
2022/04/14 00:38:39;;;;;;;8.43;7.57;;;13.90;99.90;;;;;;5068687;28;20198;-40
2022/04/14 00:41:05;;;;;;;9.50;8.50;;;14.00;99.90;;;;;;5068275;28;20228;-36
2022/04/14 00:43:32;;;;;;;12.27;10.40;;;14.00;99.90;;;;;;5050913;28;20205;-38
2022/04/14 00:46:00;;;;;;;16.23;11.53;;;13.90;99.90;;;;;;5051979;28;20197;-41
2022/04/14 00:48:26;;;;;;;13.00;11.23;;;13.90;99.90;;;;;;5049385;28;20446;-36
2022/04/14 00:50:51;;;;;;;14.30;11.00;;;13.90;99.90;;;;;;5050373;28;20432;-37
2022/04/14 00:53:17;;;;;;;13.70;10.83;;;14.00;99.90;;;;;;5059308;28;20443;-40
2022/04/14 00:55:43;;;;;;;11.40;10.20;;;14.10;99.90;;;;;;5081809;28;20211;-35
2022/04/14 00:58:09;;;;;;;12.53;10.70;;;14.10;99.90;;;;;;5050463;28;20431;-38
2022/04/14 01:00:35;;;;;;;13.57;9.73;;;14.10;99.90;;;;;;5056702;28;20185;-39
2022/04/14 01:03:01;;;;;;;12.53;10.00;;;14.10;99.90;;;;;;5053909;28;20190;-36
2022/04/14 01:05:27;;;;;;;10.97;9.87;;;14.10;99.90;;;;;;5049918;28;20182;-37
2022/04/14 01:07:56;;;;;;;12.03;9.57;;;14.10;99.90;;;;;;5057996;28;20448;-39
2022/04/14 01:10:22;;;;;;;11.20;10.00;;;14.00;99.90;;;;;;5079163;28;20423;-38
2022/04/14 01:12:48;;;;;;;10.73;9.63;;;14.00;99.90;;;;;;5053909;28;20420;-38
2022/04/14 01:15:15;;;;;;;12.23;10.20;;;14.00;99.90;;;;;;5053486;28;20799;-40
2022/04/14 01:17:41;;;;;;;14.17;10.73;;;13.90;99.90;;;;;;5052384;28;20485;-40
2022/04/14 01:20:09;;;;;;;10.17;9.03;;;13.90;99.90;;;;;;5049658;28;20525;-36
2022/04/14 01:22:38;;;;;;;10.60;9.10;;;13.80;99.90;;;;;;5055554;28;20482;-38
2022/04/14 01:25:04;;;;;;;10.20;9.20;;;13.60;99.90;;;;;;5073697;28;20428;-39
2022/04/14 01:27:30;;;;;;;13.40;10.00;;;13.60;99.90;;;;;;5051137;28;20428;-39
2022/04/14 01:29:56;;;;;;;9.97;8.50;;;13.50;99.90;;;;;;5049415;28;20435;-41
2022/04/14 01:32:22;;;;;;;11.23;9.30;;;13.50;99.90;;;;;;5050619;28;20185;-34
2022/04/14 01:34:49;;;;;;;11.80;10.60;;;13.60;99.90;;;;;;5049997;28;20201;-40
2022/04/14 01:37:15;;;;;;;12.03;9.00;;;13.70;99.90;;;;;;5049497;28;20432;-41
2022/04/14 01:39:41;;;;;;;13.97;10.83;;;13.60;99.90;;;;;;5051260;28;20945;-36
2022/04/14 01:42:07;;;;;;;12.90;10.50;;;13.60;99.90;;;;;;5054585;28;20755;-38
2022/04/14 01:44:33;;;;;;;12.23;10.93;;;13.60;99.90;;;;;;5049857;28;21326;-40
2022/04/14 01:46:59;;;;;;;12.30;9.67;;;13.50;99.90;;;;;;5059514;28;20421;-36
2022/04/14 01:49:25;;;;;;;16.10;11.43;;;13.50;99.90;;;;;;5049294;28;20213;-38
2022/04/14 01:51:50;;;;;;;12.50;10.23;;;13.50;99.90;;;;;;5048617;28;21016;-40
2022/04/14 01:54:16;;;;;;;16.07;10.90;;;13.50;99.90;;;;;;5053294;28;20205;-36
2022/04/14 01:56:42;;;;;;;12.00;10.83;;;13.50;99.90;;;;;;5068612;28;20205;-35
2022/04/14 01:59:09;;;;;;;12.43;10.80;;;13.40;99.90;;;;;;5049460;28;20844;-41
2022/04/14 02:01:35;;;;;;;14.53;12.37;;;13.30;99.90;;;;;;5054752;28;20236;-38
2022/04/14 02:04:02;;;;;;;13.00;10.27;;;13.30;99.90;;;;;;5048487;28;20827;-38
2022/04/14 02:06:28;;;;;;;13.20;10.23;;;13.20;99.90;;;;;;5049454;28;20420;-40
2022/04/14 02:08:54;;;;;;;14.37;10.37;;;13.20;99.90;;;;;;5055518;28;20450;-41
2022/04/14 02:11:20;;;;;;;12.40;10.80;;;13.30;99.90;;;;;;5070826;28;20952;-38
2022/04/14 02:13:46;;;;;;;10.60;9.50;;;13.30;99.90;;;;;;5049371;28;20281;-35
2022/04/14 02:16:11;;;;;;;12.00;10.17;;;13.30;99.90;;;;;;5060519;28;20217;-41
2022/04/14 02:18:37;;;;;;;15.70;11.20;;;13.40;99.90;;;;;;5049267;28;20284;-40
2022/04/14 02:21:03;;;;;;;14.67;10.67;;;13.40;99.90;;;;;;5048399;28;20316;-40
2022/04/14 02:23:29;;;;;;;13.50;10.03;;;13.40;99.90;;;;;;5061105;28;20192;-40
2022/04/14 02:25:55;;;;;;;12.37;10.50;;;13.50;99.90;;;;;;5070004;28;20478;-35
2022/04/14 02:28:21;;;;;;;12.37;10.27;;;13.60;99.90;;;;;;5052589;28;20420;-36
2022/04/14 02:30:47;;;;;;;11.80;10.60;;;13.80;99.90;;;;;;5051424;28;20189;-38
2022/04/14 02:33:13;;;;;;;12.30;11.00;;;13.80;99.90;;;;;;5056297;28;20186;-38
2022/04/14 02:35:39;;;;;;;14.07;10.87;;;13.70;99.90;;;;;;5048858;28;20944;-36
2022/04/14 02:38:04;;;;;;;13.50;10.20;;;13.70;99.90;;;;;;5054900;28;20196;-38
2022/04/14 02:40:30;;;;;;;12.77;10.70;;;13.70;99.90;;;;;;5059187;28;20178;-38
2022/04/14 02:42:58;;;;;;;13.60;11.73;;;13.50;99.90;;;;;;5058911;28;20221;-39
2022/04/14 02:45:25;;;;;;;16.27;12.00;;;13.40;99.90;;;;;;5048907;28;20193;-38
2022/04/14 02:47:52;;;;;;;14.97;11.40;;;13.30;99.90;;;;;;5055592;28;20444;-39
2022/04/14 02:50:20;;;;;;;14.37;11.40;;;13.30;99.90;;;;;;5048044;28;20814;-36
2022/04/14 02:52:47;;;;;;;14.30;12.70;;;13.30;99.90;;;;;;5054729;28;20451;-39
2022/04/14 02:55:12;;;;;;;12.57;10.97;;;13.40;99.90;;;;;;5072002;28;20422;-36
2022/04/14 02:57:38;;;;;;;16.80;13.27;;;13.50;99.90;;;;;;5057824;28;20440;-41
2022/04/14 03:00:07;;;;;;;13.93;12.20;;;13.50;99.90;;;;;;5048410;28;20544;-40
2022/04/14 03:02:38;;;;;;;13.60;12.10;;;13.50;99.90;;;;;;5054640;28;20474;-38
2022/04/14 03:05:05;;;;;;;15.33;13.73;;;13.50;99.90;;;;;;5051832;28;20903;-41
2022/04/14 03:07:31;;;;;;;16.90;13.63;;;13.30;99.90;;;;;;5052808;28;20431;-38
2022/04/14 03:09:57;;;;;;;14.53;12.07;;;13.30;99.90;;;;;;5068873;28;20464;-41
2022/04/14 03:12:22;;;;;;;17.17;13.33;;;13.30;99.90;;;;;;5064257;28;20828;-40
2022/04/14 03:14:48;;;;;;;17.90;14.07;;;13.50;99.90;;;;;;5052681;28;20220;-40
2022/04/14 03:17:14;;;;;;;15.90;13.50;;;13.40;99.90;;;;;;5065804;28;20207;-36
2022/04/14 03:19:40;;;;;;;16.17;13.60;;;13.30;99.90;;;;;;5051886;28;20428;-41
2022/04/14 03:22:06;;;;;;;16.37;13.33;;;13.40;99.90;;;;;;5052336;28;20270;-37
2022/04/14 03:24:32;;;;;;;17.13;13.47;;;13.50;99.90;;;;;;5068890;28;20955;-35
2022/04/14 03:26:58;;;;;;;17.50;15.07;;;13.50;99.90;;;;;;5077236;28;20268;-40
2022/04/14 03:29:23;;;;;;;18.30;14.83;;;13.30;99.90;;;;;;5052275;28;20186;-40
2022/04/14 03:31:49;;;;;;;17.37;14.67;;;13.30;99.90;;;;;;5059198;28;20427;-38
2022/04/14 03:34:15;;;;;;;17.07;14.50;;;13.30;99.90;;;;;;5051840;28;20280;-40
2022/04/14 03:36:41;;;;;;;15.70;14.00;;;13.30;99.90;;;;;;5052316;28;20193;-41
2022/04/14 03:39:07;;;;;;;18.23;14.23;;;13.30;99.90;;;;;;5065398;28;20192;-40
2022/04/14 03:41:32;;;;;;;19.10;14.20;;;13.30;99.90;;;;;;5073755;28;20209;-38
2022/04/14 03:43:58;;;;;;;18.23;14.37;;;13.40;99.90;;;;;;5063854;28;20182;-41
2022/04/14 03:46:23;;;;;;;16.83;15.03;;;13.50;99.90;;;;;;5055441;28;20196;-36
2022/04/14 03:48:49;;;;;;;17.60;14.53;;;13.60;99.90;;;;;;5051746;28;20522;-38
2022/04/14 03:51:16;;;;;;;17.03;14.47;;;13.60;99.90;;;;;;5051364;28;20213;-38
2022/04/14 03:53:42;;;;;;;18.93;14.63;;;13.60;99.90;;;;;;5058973;28;20188;-40
2022/04/14 03:56:08;;;;;;;16.97;14.57;;;13.40;99.90;;;;;;5083428;28;20478;-40
2022/04/14 03:58:34;;;;;;;19.30;15.57;;;13.30;99.90;;;;;;5051861;28;20431;-41
2022/04/14 04:01:00;;;;;;;21.50;15.70;;;13.30;99.90;;;;;;5051038;28;20463;-37
2022/04/14 04:03:26;;;;;;;19.67;16.60;;;13.20;99.90;;;;;;5062487;28;20185;-36
2022/04/14 04:05:52;;;;;;;22.43;16.70;;;13.30;99.90;;;;;;5050798;28;20416;-39
2022/04/14 04:08:18;;;;;;;20.53;16.17;;;13.30;99.90;;;;;;5051292;28;20427;-39
2022/04/14 04:10:45;;;;;;;23.33;17.93;;;13.30;99.90;;;;;;5053803;28;20245;-38
2022/04/14 04:13:11;;;;;;;23.30;18.47;;;13.20;99.90;;;;;;5067432;28;20428;-41
2022/04/14 04:15:37;;;;;;;21.70;18.33;;;13.20;99.90;;;;;;5052123;28;20493;-39
2022/04/14 04:18:04;;;;;;;21.53;17.30;;;13.20;99.90;;;;;;5063985;28;20455;-41
2022/04/14 04:20:31;;;;;;;19.90;16.27;;;13.30;99.90;;;;;;5050682;28;20190;-37
2022/04/14 04:22:57;;;;;;;18.87;16.83;;;13.40;99.90;;;;;;5050890;28;20471;-38
2022/04/14 04:25:23;;;;;;;20.27;17.13;;;13.40;99.90;;;;;;5061836;28;20842;-41
2022/04/14 04:27:48;;;;;;;23.03;19.10;;;13.30;99.90;;;;;;5069963;28;20188;-40
2022/04/14 04:30:14;;;;;;;21.43;17.83;;;13.30;99.90;;;;;;5050404;28;20182;-36
2022/04/14 04:32:41;;;;;;;22.60;18.30;;;13.00;99.90;;;;;;5055684;28;20193;-38
2022/04/14 04:35:07;;;;;;;21.93;18.80;;;12.80;99.90;;;;;;5051237;28;20269;-35
2022/04/14 04:37:33;;;;;;;22.03;18.33;;;12.80;99.90;;;;;;5051226;28;20781;-41
2022/04/14 04:39:59;;;;;;;23.57;19.27;;;12.80;99.90;;;;;;5060512;28;20545;-40
2022/04/14 04:42:25;;;;;;;23.73;20.17;;;12.80;99.90;;;;;;5077762;28;20690;-42
2022/04/14 04:44:51;;;;;;;23.17;20.03;;;12.80;99.90;;;;;;5051120;28;20197;-38
2022/04/14 04:47:20;;;;;;;26.90;20.50;;;12.80;99.90;;;;;;5052127;28;20192;-40
2022/04/14 04:49:46;;;;;;;24.70;20.80;;;12.90;99.90;;;;;;5062994;28;20456;-40
2022/04/14 04:52:12;;;;;;;25.53;20.60;;;13.00;99.90;;;;;;5070322;28;20422;-37
2022/04/14 04:54:37;;;;;;;27.53;21.20;;;12.90;99.90;;;;;;5066947;28;20527;-41
2022/04/14 04:57:04;;;;;;;26.83;21.07;;;12.90;99.90;;;;;;5072484;28;20215;-37
2022/04/14 04:59:29;;;;;;;23.70;19.80;;;13.00;99.90;;;;;;5052252;28;20197;-41
2022/04/14 05:01:55;;;;;;;27.93;20.93;;;13.00;99.90;;;;;;5053534;28;20536;-40
2022/04/14 05:04:21;;;;;;;23.97;20.63;;;13.10;99.90;;;;;;5061029;28;20219;-38
2022/04/14 05:06:46;;;;;;;24.53;20.80;;;13.10;99.90;;;;;;5073224;28;20194;-42
2022/04/14 05:09:12;;;;;;;22.83;18.80;;;13.10;99.90;;;;;;5071935;28;20185;-38
2022/04/14 05:11:38;;;;;;;29.23;21.00;;;13.10;99.90;;;;;;5063068;28;20201;-41
2022/04/14 05:14:04;;;;;;;31.67;21.97;;;13.00;99.90;;;;;;5073778;28;20193;-38
2022/04/14 05:16:29;;;;;;;31.90;22.37;;;13.10;99.90;;;;;;5050471;28;20818;-41
2022/04/14 05:18:55;;;;;;;28.13;20.20;;;13.10;99.90;;;;;;5057217;28;20196;-40
2022/04/14 05:21:21;;;;;;;28.07;22.17;;;13.10;99.90;;;;;;5062246;28;20238;-37
2022/04/14 05:23:46;;;;;;;29.07;21.83;;;13.00;99.90;;;;;;5063575;28;20189;-38
2022/04/14 05:26:12;;;;;;;24.93;21.00;;;13.00;99.90;;;;;;5072171;28;20648;-40
2022/04/14 05:28:38;;;;;;;25.57;20.90;;;13.10;99.90;;;;;;5061625;28;20190;-39
2022/04/14 05:31:04;;;;;;;25.20;21.60;;;13.10;99.90;;;;;;5055686;28;20490;-39
2022/04/14 05:33:30;;;;;;;29.50;22.50;;;13.10;99.90;;;;;;5049760;28;20212;-37
2022/04/14 05:35:55;;;;;;;26.93;20.73;;;13.10;99.90;;;;;;5060269;28;20276;-39
2022/04/14 05:38:21;;;;;;;25.23;21.60;;;13.10;99.90;;;;;;5085711;28;20325;-38
2022/04/14 05:40:47;;;;;;;28.10;22.40;;;13.10;99.90;;;;;;5061030;28;20185;-37
2022/04/14 05:43:21;;;;;;;25.07;22.03;;;13.20;99.90;;;;;;5075620;28;20679;-41
2022/04/14 05:45:48;;;;;;;28.63;22.10;;;13.20;99.90;;;;;;5050096;28;20618;-38
2022/04/14 05:48:15;;;;;;;27.30;21.70;;;13.20;99.90;;;;;;5059170;28;20423;-39
2022/04/14 05:50:43;;;;;;;29.67;22.87;;;13.20;99.90;;;;;;5049178;28;20428;-41
2022/04/14 05:53:09;;;;;;;30.70;23.63;;;13.20;99.90;;;;;;5049711;28;20435;-39
2022/04/14 05:55:35;;;;;;;30.57;22.40;;;13.20;99.90;;;;;;5067252;28;20462;-40
2022/04/14 05:58:03;;;;;;;26.80;21.50;;;13.20;99.90;;;;;;5073561;28;20507;-38
2022/04/14 06:00:33;;;;;;;27.57;22.60;;;13.10;99.90;;;;;;5054679;28;20431;-40
2022/04/14 06:02:59;;;;;;;26.93;21.40;;;13.10;99.90;;;;;;5061893;28;20470;-40
2022/04/14 06:05:33;;;;;;;30.93;23.17;;;13.10;99.90;;;;;;5071353;28;20425;-41
2022/04/14 06:07:59;;;;;;;33.50;25.90;;;13.10;99.90;;;;;;5055071;28;20455;-38
2022/04/14 06:10:27;;;;;;;33.10;25.70;;;13.00;99.90;;;;;;5063013;28;20916;-40
2022/04/14 06:12:55;;;;;;;32.47;26.00;;;13.00;99.90;;;;;;5064900;28;20442;-41
2022/04/14 06:15:22;;;;;;;38.07;25.17;;;13.00;99.90;;;;;;5066854;28;20773;-40
2022/04/14 06:17:49;;;;;;;33.93;26.00;;;13.10;99.90;;;;;;5063421;28;20416;-41
2022/04/14 06:20:15;;;;;;;35.17;28.50;;;13.10;99.90;;;;;;5061789;28;20415;-37
2022/04/14 06:22:42;;;;;;;38.10;28.70;;;13.10;99.90;;;;;;5052469;28;20617;-38
2022/04/14 06:25:22;;;;;;;36.00;26.40;;;13.10;99.90;;;;;;5065874;28;20509;-40
2022/04/14 06:27:49;;;;;;;34.50;27.43;;;13.20;99.90;;;;;;5049244;28;21006;-38
2022/04/14 06:30:18;;;;;;;34.43;27.43;;;13.30;99.90;;;;;;5053028;28;20424;-34
2022/04/14 06:32:55;;;;;;;39.43;27.20;;;13.20;99.90;;;;;;5054623;28;20427;-39
2022/04/14 06:35:20;;;;;;;32.00;25.80;;;13.30;99.90;;;;;;5051840;28;20427;-36
2022/04/14 06:37:46;;;;;;;32.70;25.80;;;13.40;99.90;;;;;;5049205;28;20561;-38
2022/04/14 06:40:12;;;;;;;34.17;26.23;;;13.40;99.90;;;;;;5054870;28;20552;-41
2022/04/14 06:42:37;;;;;;;32.50;25.83;;;13.40;99.90;;;;;;5068180;28;20208;-35
2022/04/14 06:45:05;;;;;;;35.07;27.90;;;13.40;99.90;;;;;;5048872;28;20185;-38
2022/04/14 06:47:30;;;;;;;39.07;28.67;;;13.40;99.90;;;;;;5051067;28;20938;-41
2022/04/14 06:49:56;;;;;;;36.60;28.60;;;13.50;99.90;;;;;;5050899;28;20507;-40
2022/04/14 06:52:22;;;;;;;36.37;26.70;;;13.50;99.90;;;;;;5053143;28;20554;-41
2022/04/14 06:54:48;;;;;;;35.30;26.37;;;13.50;99.90;;;;;;5057298;28;20260;-39
2022/04/14 06:57:15;;;;;;;35.07;27.43;;;13.60;99.90;;;;;;5071073;28;20485;-36
2022/04/14 06:59:41;;;;;;;38.30;27.43;;;13.60;99.90;;;;;;5076822;28;20428;-40
2022/04/14 07:02:07;;;;;;;37.00;27.47;;;13.70;99.90;;;;;;5047971;28;21023;-41
2022/04/14 07:04:33;;;;;;;40.63;27.50;;;13.80;99.90;;;;;;5047600;28;20193;-39
2022/04/14 07:06:59;;;;;;;34.87;26.50;;;13.80;99.90;;;;;;5048056;28;20950;-39
2022/04/14 07:09:25;;;;;;;38.57;28.30;;;13.90;99.90;;;;;;5048625;28;20436;-40
2022/04/14 07:11:53;;;;;;;35.53;27.30;;;13.90;99.90;;;;;;5062348;28;20420;-41
2022/04/14 07:14:19;;;;;;;35.57;27.60;;;13.90;99.90;;;;;;5060011;28;20186;-42
2022/04/14 07:16:45;;;;;;;36.83;28.33;;;14.00;99.90;;;;;;5049928;28;20939;-39
2022/04/14 07:19:11;;;;;;;39.50;28.90;;;14.00;99.90;;;;;;5063667;28;20454;-40
2022/04/14 07:21:36;;;;;;;37.77;28.47;;;14.10;99.90;;;;;;5057750;28;20466;-41
2022/04/14 07:24:02;;;;;;;39.50;28.90;;;14.00;99.90;;;;;;5051842;28;20752;-38
2022/04/14 07:26:28;;;;;;;44.57;30.80;;;14.00;99.90;;;;;;5059725;28;20186;-39
2022/04/14 07:28:53;;;;;;;49.53;31.87;;;13.90;99.90;;;;;;5060515;28;20258;-41
2022/04/14 07:31:19;;;;;;;55.27;32.70;;;13.90;99.90;;;;;;5046037;28;20189;-41
2022/04/14 07:33:45;;;;;;;53.60;34.93;;;13.90;99.90;;;;;;5054676;28;20198;-40
2022/04/14 07:36:14;;;;;;;46.40;33.37;;;13.90;99.90;;;;;;5047968;28;20653;-38
2022/04/14 07:38:40;;;;;;;48.53;33.47;;;14.00;99.90;;;;;;5047917;28;20197;-41
2022/04/14 07:41:05;;;;;;;46.13;33.13;;;14.00;99.90;;;;;;5061293;28;20444;-41
2022/04/14 07:43:32;;;;;;;48.00;32.00;;;14.10;99.90;;;;;;5068256;28;20224;-41
2022/04/14 07:45:58;;;;;;;49.90;33.97;;;14.10;99.90;;;;;;5047816;28;20558;-38
2022/04/14 07:48:24;;;;;;;51.03;33.03;;;14.20;99.90;;;;;;5053272;28;20432;-38
2022/04/14 07:50:50;;;;;;;46.43;33.47;;;14.20;99.90;;;;;;5050844;28;20598;-40
2022/04/14 07:53:16;;;;;;;52.43;33.30;;;14.20;99.90;;;;;;5051412;28;20579;-39
2022/04/14 07:55:41;;;;;;;44.83;31.23;;;14.20;99.90;;;;;;5053796;28;20482;-38
2022/04/14 07:58:07;;;;;;;46.43;31.20;;;14.30;99.90;;;;;;5075842;28;20455;-40
2022/04/14 08:00:34;;;;;;;48.00;31.23;;;14.40;99.90;;;;;;5050669;28;20182;-39
2022/04/14 08:03:02;;;;;;;49.23;32.27;;;14.40;99.90;;;;;;5053137;28;20301;-40
2022/04/14 08:05:36;;;;;;;52.83;33.37;;;14.30;99.90;;;;;;5059139;28;20470;-38
2022/04/14 08:08:13;;;;;;;47.63;33.43;;;14.40;99.90;;;;;;5050971;28;20428;-40
2022/04/14 08:10:40;;;;;;;44.50;31.80;;;14.50;99.90;;;;;;5051625;28;20431;-40
2022/04/14 08:13:06;;;;;;;44.23;31.50;;;14.60;99.90;;;;;;5080256;28;20422;-41
2022/04/14 08:15:33;;;;;;;48.97;33.90;;;14.70;99.90;;;;;;5057718;28;20432;-36
2022/04/14 08:18:00;;;;;;;52.47;34.80;;;14.80;99.90;;;;;;5071489;28;21150;-38
2022/04/14 08:20:27;;;;;;;49.50;34.00;;;14.90;99.90;;;;;;5057079;28;21010;-36
2022/04/14 08:22:58;;;;;;;49.17;33.40;;;15.10;99.90;;;;;;5051311;28;20464;-38
2022/04/14 08:25:25;;;;;;;51.33;33.47;;;15.30;99.90;;;;;;5058775;28;20447;-41
2022/04/14 08:27:52;;;;;;;53.27;35.93;;;15.40;99.90;;;;;;5072752;28;20462;-40
2022/04/14 08:30:20;;;;;;;51.37;33.93;;;15.50;99.90;;;;;;5073966;28;20431;-39
2022/04/14 08:32:48;;;;;;;55.33;37.00;;;15.40;99.90;;;;;;5051299;28;20516;-39
2022/04/14 08:35:15;;;;;;;52.50;36.63;;;15.40;99.90;;;;;;5053709;28;20428;-37
2022/04/14 08:37:42;;;;;;;57.20;39.43;;;15.50;99.90;;;;;;5051187;28;20424;-40
2022/04/14 08:40:11;;;;;;;55.03;37.30;;;15.50;99.90;;;;;;5051810;28;21001;-40
2022/04/14 08:42:39;;;;;;;57.00;39.83;;;15.60;99.90;;;;;;5083250;28;20477;-40
2022/04/14 08:45:11;;;;;;;61.83;38.57;;;15.80;99.90;;;;;;5051368;28;20424;-39
2022/04/14 08:47:39;;;;;;;55.80;38.63;;;16.00;99.90;;;;;;5049161;28;20478;-38
2022/04/14 08:50:06;;;;;;;48.60;36.13;;;16.00;99.90;;;;;;5049762;28;20435;-41
2022/04/14 08:52:34;;;;;;;50.17;36.13;;;16.20;99.90;;;;;;5050368;28;20755;-40
2022/04/14 08:55:05;;;;;;;50.87;36.07;;;16.40;99.90;;;;;;5047923;28;20526;-36
2022/04/14 08:57:32;;;;;;;46.30;34.87;;;16.40;99.90;;;;;;5058881;28;20427;-40
2022/04/14 09:00:00;;;;;;;48.67;33.87;;;16.40;99.90;;;;;;5050735;28;20435;-41
2022/04/14 09:02:27;;;;;;;46.37;33.07;;;16.40;99.90;;;;;;5049690;28;20471;-37
2022/04/14 09:04:55;;;;;;;40.70;31.70;;;16.50;99.90;;;;;;5058095;28;20427;-40
2022/04/14 09:07:21;;;;;;;42.27;30.60;;;16.40;99.90;;;;;;5049739;28;20767;-37
2022/04/14 09:09:47;;;;;;;35.20;27.50;;;16.20;99.90;;;;;;5048988;28;20528;-40
2022/04/14 09:12:13;;;;;;;34.47;28.03;;;16.30;99.90;;;;;;5051170;28;20843;-41
2022/04/14 09:14:40;;;;;;;34.23;26.70;;;16.40;99.90;;;;;;5068101;28;20910;-39
2022/04/14 09:17:07;;;;;;;34.27;25.67;;;16.70;99.90;;;;;;5062527;28;20790;-39
2022/04/14 09:19:34;;;;;;;34.00;25.10;;;16.90;99.90;;;;;;5062696;28;20440;-36
2022/04/14 09:22:02;;;;;;;31.53;24.47;;;17.20;99.90;;;;;;5049289;28;20893;-36
2022/04/14 09:24:51;;;;;;;35.50;24.90;;;17.40;99.90;;;;;;5053683;28;20416;-37
2022/04/14 09:27:31;;;;;;;27.97;22.63;;;17.60;99.90;;;;;;5053278;28;20446;-39
2022/04/14 09:30:03;;;;;;;29.60;22.20;;;17.50;99.90;;;;;;5067897;28;20439;-40
2022/04/14 09:32:32;;;;;;;21.13;18.90;;;17.50;99.90;;;;;;5047821;28;20523;-41
2022/04/14 09:35:07;;;;;;;23.03;19.43;;;17.60;99.90;;;;;;5050185;28;20424;-36
2022/04/14 09:37:33;;;;;;;28.87;23.23;;;17.90;99.90;;;;;;5048279;28;20427;-40
2022/04/14 09:40:10;;;;;;;24.67;21.40;;;18.10;99.90;;;;;;5031029;28;20437;-36
2022/04/14 09:42:38;;;;;;;23.20;18.50;;;18.30;99.90;;;;;;5061329;28;20459;-38
2022/04/14 09:45:21;;;;;;;21.00;17.50;;;18.60;99.90;;;;;;5063368;28;20417;-40
2022/04/14 09:47:49;;;;;;;21.63;18.33;;;18.80;99.90;;;;;;5049439;28;20780;-41
2022/04/14 09:50:40;;;;;;;27.80;22.43;;;18.80;99.90;;;;;;5057131;28;20456;-39
2022/04/14 09:53:18;;;;;;;26.10;21.57;;;18.80;99.90;;;;;;5049085;28;20482;-40
2022/04/14 09:55:56;;;;;;;24.30;21.60;;;18.90;99.90;;;;;;5049977;28;20452;-34
2022/04/14 09:58:23;;;;;;;24.00;21.40;;;19.00;99.90;;;;;;5057001;28;20424;-38
2022/04/14 10:00:56;;;;;;;26.07;23.30;;;19.00;99.90;;;;;;5055839;28;20950;-35
2022/04/14 10:03:29;;;;;;;24.60;21.20;;;19.00;99.90;;;;;;5055003;28;21142;-38
2022/04/14 10:05:57;;;;;;;25.40;21.30;;;19.20;99.90;;;;;;5054323;28;21085;-37
2022/04/14 10:08:24;;;;;;;24.80;22.20;;;19.30;99.90;;;;;;5048987;28;21008;-41
2022/04/14 10:11:06;;;;;;;30.03;25.73;;;19.40;99.90;;;;;;5047115;28;20804;-38
2022/04/14 10:13:37;;;;;;;27.37;24.30;;;19.10;99.90;;;;;;5071555;28;20417;-39
2022/04/14 10:16:03;;;;;;;25.67;23.07;;;18.70;99.90;;;;;;5051034;28;20419;-36
2022/04/14 10:18:30;;;;;;;27.77;24.70;;;18.50;99.90;;;;;;5048223;28;20717;-35
2022/04/14 10:20:57;;;;;;;28.70;25.60;;;18.40;99.90;;;;;;5049651;28;20464;-38
2022/04/14 10:23:25;;;;;;;26.07;23.03;;;18.20;99.90;;;;;;5050401;28;20536;-40
2022/04/14 10:25:53;;;;;;;27.27;24.47;;;18.30;99.90;;;;;;5052329;28;20435;-39
2022/04/14 10:28:20;;;;;;;26.87;23.90;;;18.40;99.90;;;;;;5065487;28;20871;-40
2022/04/14 10:30:57;;;;;;;25.77;22.90;;;18.50;99.90;;;;;;5061614;28;20481;-35
2022/04/14 10:33:23;;;;;;;25.50;22.90;;;18.60;99.90;;;;;;5048299;28;20531;-38
2022/04/14 10:35:50;;;;;;;27.13;23.90;;;18.80;99.90;;;;;;5048215;28;20431;-38
2022/04/14 10:38:30;;;;;;;24.23;21.83;;;19.10;99.90;;;;;;5068653;28;20506;-38
2022/04/14 10:41:13;;;;;;;25.77;23.00;;;19.40;99.90;;;;;;5066089;28;20430;-41
2022/04/14 10:43:46;;;;;;;23.70;21.30;;;19.40;99.90;;;;;;5067448;28;20500;-40
2022/04/14 10:46:14;;;;;;;21.43;19.33;;;19.60;99.90;;;;;;5053012;28;20420;-38
2022/04/14 10:48:41;;;;;;;26.40;23.70;;;19.60;99.90;;;;;;5048184;28;20420;-41
2022/04/14 10:51:19;;;;;;;23.87;21.40;;;19.40;99.90;;;;;;5053969;28;20477;-41
2022/04/14 10:53:52;;;;;;;26.33;23.43;;;19.40;99.90;;;;;;5048202;28;20400;-37
2022/04/14 10:56:37;;;;;;;24.27;21.63;;;19.40;99.90;;;;;;5051532;28;20435;-36
2022/04/14 10:59:03;;;;;;;25.47;22.77;;;19.60;99.90;;;;;;5081992;28;20403;-39
2022/04/14 11:01:47;;;;;;;27.50;24.63;;;19.80;99.90;;;;;;5049110;28;20463;-37
2022/04/14 11:04:25;;;;;;;25.00;22.40;;;19.90;99.90;;;;;;5047853;28;20408;-38
2022/04/14 11:06:53;;;;;;;21.90;19.70;;;20.10;99.90;;;;;;5048396;28;20491;-38
2022/04/14 11:09:44;;;;;;;25.57;22.77;;;20.20;99.90;;;;;;5048111;28;20427;-40
2022/04/14 11:12:20;;;;;;;26.17;23.37;;;20.50;99.90;;;;;;5057458;28;20439;-41
2022/04/14 11:15:02;;;;;;;27.13;24.33;;;20.30;99.70;;;;;;5065924;28;20503;-40
2022/04/14 11:17:33;;;;;;;25.07;22.37;;;20.40;99.90;;;;;;5050331;28;20846;-40
2022/04/14 11:20:20;;;;;;;22.57;20.17;;;20.30;99.90;;;;;;5055783;28;21040;-37
2022/04/14 11:23:21;;;;;;;21.20;18.90;;;20.50;99.90;;;;;;5049790;28;21090;-39
2022/04/14 11:25:48;;;;;;;23.63;21.30;;;20.70;99.90;;;;;;5051377;28;20870;-38
2022/04/14 11:28:20;;;;;;;19.27;17.40;;;20.70;99.90;;;;;;5061906;28;20436;-38
2022/04/14 11:30:51;;;;;;;17.23;15.53;;;20.80;99.70;;;;;;5069952;28;20546;-37
2022/04/14 11:33:32;;;;;;;17.40;15.70;;;20.90;99.00;;;;;;5050004;28;20502;-41
2022/04/14 11:36:07;;;;;;;16.40;14.80;;;20.80;99.40;;;;;;5056757;28;20805;-40
2022/04/14 11:38:56;;;;;;;16.10;14.50;;;20.80;99.90;;;;;;5051869;28;20431;-39
2022/04/14 11:41:42;;;;;;;14.93;12.50;;;20.90;98.80;;;;;;5050199;28;20513;-41
2022/04/14 11:44:13;;;;;;;12.20;10.57;;;20.90;97.90;;;;;;5062894;28;20475;-39
2022/04/14 11:46:45;;;;;;;10.10;9.20;;;21.00;98.60;;;;;;5058788;28;20426;-40
2022/04/14 11:49:13;;;;;;;8.40;7.60;;;20.80;97.00;;;;;;5058842;28;20419;-40
2022/04/14 11:51:46;;;;;;;8.30;7.60;;;20.90;98.80;;;;;;5058074;28;20420;-40
2022/04/14 11:54:18;;;;;;;11.50;10.40;;;20.90;96.40;;;;;;5062751;28;20894;-40
2022/04/14 11:56:55;;;;;;;11.90;10.87;;;21.00;97.30;;;;;;5063972;28;20528;-37
2022/04/14 11:59:35;;;;;;;14.93;12.97;;;21.10;98.30;;;;;;5065659;28;20413;-38
2022/04/14 12:02:06;;;;;;;13.83;12.63;;;21.10;97.60;;;;;;5064769;28;20600;-40
2022/04/14 12:04:40;;;;;;;16.47;14.97;;;21.20;97.80;;;;;;5060549;28;20463;-40
2022/04/14 12:07:07;;;;;;;18.00;16.30;;;20.90;97.00;;;;;;5068481;28;20496;-38
2022/04/14 12:09:34;;;;;;;16.03;14.63;;;20.60;97.60;;;;;;5051730;28;20976;-39
2022/04/14 12:12:19;;;;;;;14.93;13.63;;;20.20;97.80;;;;;;5054643;28;20764;-38
2022/04/14 12:14:47;;;;;;;13.53;12.23;;;20.00;97.90;;;;;;5061542;28;20431;-41
2022/04/14 12:17:16;;;;;;;14.53;13.13;;;19.90;98.60;;;;;;5058211;28;20794;-41
2022/04/14 12:19:43;;;;;;;14.13;12.80;;;19.80;97.90;;;;;;5060700;28;20423;-41
2022/04/14 12:22:10;;;;;;;14.87;13.47;;;19.70;97.50;;;;;;5056269;28;20538;-41
2022/04/14 12:24:36;;;;;;;13.33;12.20;;;19.60;97.90;;;;;;5054199;28;20843;-39
2022/04/14 12:27:02;;;;;;;13.77;12.60;;;19.60;98.90;;;;;;5053091;28;20426;-38
2022/04/14 12:29:28;;;;;;;14.13;12.83;;;19.60;98.50;;;;;;5077494;28;20501;-40
2022/04/14 12:32:11;;;;;;;14.13;12.83;;;19.60;99.00;;;;;;5056523;28;20539;-39
2022/04/14 12:34:45;;;;;;;14.67;13.10;;;19.70;99.90;;;;;;5050591;28;20430;-37